Time;durP1;ratioP1;P1;durP2;ratioP2;P2;SDS_P1;SDS_P2;PMS_P1;PMS_P2;Temp;Humidity;BMP_temperature;BMP_pressure;BME280_temperature;BME280_humidity;BME280_pressure;Samples;Min_cycle;Max_cycle;Signal;HPM_P1;HPM_P2
2023/09/24 00:00:01;;;;;;;2.87;2.03;;;;;;;11.77;100.00;154382.66;4953729;28;20473;-88
2023/09/24 00:02:27;;;;;;;3.50;2.50;;;;;;;11.75;100.00;154377.50;4944740;28;20490;-88
2023/09/24 00:04:57;;;;;;;2.73;2.47;;;;;;;11.73;100.00;154372.28;4965870;28;20545;-87
2023/09/24 00:07:25;;;;;;;2.93;2.40;;;;;;;11.72;100.00;154369.72;4979584;28;20451;-89
2023/09/24 00:09:52;;;;;;;3.37;2.40;;;;;;;11.72;100.00;154368.41;4968627;28;20490;-88
2023/09/24 00:12:18;;;;;;;3.40;2.60;;;;;;;11.66;100.00;154354.09;4971502;28;20470;-88
2023/09/24 00:14:45;;;;;;;3.43;2.60;;;;;;;11.65;100.00;154351.50;4969456;28;20521;-88
2023/09/24 00:17:12;;;;;;;2.83;2.57;;;;;;;11.63;100.00;154347.63;4974998;28;20439;-88
2023/09/24 00:19:38;;;;;;;2.97;2.60;;;;;;;11.59;100.00;154337.28;4958084;28;20463;-88
2023/09/24 00:22:06;;;;;;;2.87;2.57;;;;;;;11.56;100.00;154329.50;4967543;28;20474;-89
2023/09/24 00:24:33;;;;;;;4.20;2.50;;;;;;;11.53;100.00;154321.72;4965942;28;20454;-88
2023/09/24 00:27:05;;;;;;;4.90;2.83;;;;;;;11.48;100.00;154307.47;4965318;28;20477;-88
2023/09/24 00:29:31;;;;;;;2.77;2.40;;;;;;;11.48;100.00;154307.47;4981730;28;20457;-89
2023/09/24 00:31:58;;;;;;;2.93;2.53;;;;;;;11.46;100.00;154303.53;4951112;28;20456;-88
2023/09/24 00:34:25;;;;;;;3.57;2.60;;;;;;;11.43;100.00;154294.50;4965767;28;20483;-89
2023/09/24 00:36:51;;;;;;;4.87;2.37;;;;;;;11.42;100.00;154291.91;4958578;28;20537;-88
2023/09/24 00:39:19;;;;;;;2.20;1.90;;;;;;;11.38;100.00;154282.84;5004612;28;20449;-88
2023/09/24 00:41:46;;;;;;;3.07;2.27;;;;;;;11.39;100.00;154284.13;4968814;28;20469;-88
2023/09/24 00:44:14;;;;;;;2.90;2.50;;;;;;;11.36;100.00;154276.34;4984697;28;20505;-88
2023/09/24 00:46:40;;;;;;;3.03;2.50;;;;;;;11.38;100.00;154281.56;4968608;28;20465;-88
2023/09/24 00:49:07;;;;;;;2.00;1.80;;;;;;;11.32;100.00;154266.00;4954766;28;20447;-88
2023/09/24 00:51:34;;;;;;;2.87;1.73;;;;;;;11.30;100.00;154262.13;4960771;28;20562;-88
2023/09/24 00:54:01;;;;;;;2.90;1.97;;;;;;;11.31;100.00;154263.38;4965260;28;20475;-88
2023/09/24 00:56:29;;;;;;;3.57;2.10;;;;;;;11.31;100.00;154263.38;4961184;28;20465;-88
2023/09/24 00:58:57;;;;;;;2.00;1.60;;;;;;;11.28;100.00;154255.66;4961875;28;20485;-89
2023/09/24 01:01:25;;;;;;;2.80;2.50;;;;;;;11.25;100.00;154249.13;4966361;28;20545;-88
2023/09/24 01:03:52;;;;;;;2.00;1.80;;;;;;;11.18;100.00;154229.72;4945616;28;20979;-89
2023/09/24 01:06:20;;;;;;;2.87;2.07;;;;;;;11.12;100.00;154215.44;4976958;28;20511;-89
2023/09/24 01:08:47;;;;;;;2.13;1.83;;;;;;;11.07;100.00;154202.50;4946730;28;20618;-89
2023/09/24 01:11:14;;;;;;;2.93;1.73;;;;;;;11.05;100.00;154196.03;4958534;28;20829;-88
2023/09/24 01:13:44;;;;;;;2.27;2.07;;;;;;;11.03;100.00;154192.16;4967838;28;20541;-88
2023/09/24 01:16:13;;;;;;;2.80;2.20;;;;;;;11.04;100.00;154193.47;4964698;28;20464;-88
2023/09/24 01:18:41;;;;;;;2.53;1.80;;;;;;;11.04;100.00;154193.47;4962446;28;20462;-88
2023/09/24 01:21:12;;;;;;;2.67;2.20;;;;;;;11.01;100.00;154187.00;4967119;28;20457;-90
2023/09/24 01:23:42;;;;;;;2.40;1.87;;;;;;;11.02;100.00;154189.56;4958944;28;20454;-90
2023/09/24 01:26:09;;;;;;;3.10;2.00;;;;;;;10.97;100.00;154177.91;4933435;29;20460;-90
2023/09/24 01:28:37;;;;;;;2.80;2.10;;;;;;;10.95;100.00;154172.75;4966564;28;20524;-90
2023/09/24 01:31:04;;;;;;;2.70;2.47;;;;;;;10.93;100.00;154167.53;4971426;28;20458;-90
2023/09/24 01:33:31;;;;;;;2.50;2.20;;;;;;;10.88;100.00;154154.56;4962297;28;20737;-90
2023/09/24 01:35:58;;;;;;;2.20;1.93;;;;;;;10.84;100.00;154142.94;4963834;28;20502;-88
2023/09/24 01:38:24;;;;;;;2.30;1.77;;;;;;;10.82;100.00;154139.06;4961108;28;20463;-90
2023/09/24 01:40:54;;;;;;;3.43;2.03;;;;;;;10.77;100.00;154126.13;4961807;28;20450;-89
2023/09/24 01:43:21;;;;;;;2.23;1.87;;;;;;;10.76;100.00;154123.53;4968852;28;20447;-89
2023/09/24 01:45:48;;;;;;;2.50;1.87;;;;;;;10.74;100.00;154118.34;4964514;28;20589;-90
2023/09/24 01:48:17;;;;;;;2.70;1.90;;;;;;;10.72;100.00;154113.13;4965279;28;20505;-89
2023/09/24 01:50:44;;;;;;;2.23;1.97;;;;;;;10.66;100.00;154097.63;4967060;28;20468;-90
2023/09/24 01:53:11;;;;;;;3.77;2.23;;;;;;;10.64;100.00;154092.47;4945623;28;20482;-88
2023/09/24 01:55:38;;;;;;;3.10;2.00;;;;;;;10.62;100.00;154087.25;4963519;28;20465;-89
2023/09/24 01:58:07;;;;;;;2.00;1.43;;;;;;;10.59;100.00;154079.47;4963204;28;20458;-88
2023/09/24 02:00:34;;;;;;;2.50;2.00;;;;;;;10.59;100.00;154078.22;4959561;28;20465;-89
2023/09/24 02:03:06;;;;;;;2.00;1.73;;;;;;;10.57;100.00;154074.31;4963149;28;20486;-88
2023/09/24 02:05:33;;;;;;;2.10;1.50;;;;;;;10.53;100.00;154063.97;4965480;28;20466;-89
2023/09/24 02:08:01;;;;;;;8.67;2.63;;;;;;;10.48;100.00;154051.03;4966913;28;20806;-89
2023/09/24 02:10:27;;;;;;;2.30;1.83;;;;;;;10.53;100.00;154062.66;4947414;28;20481;-88
2023/09/24 02:12:55;;;;;;;2.10;1.90;;;;;;;10.52;100.00;154061.34;4968436;28;20467;-89
2023/09/24 02:15:25;;;;;;;2.40;1.80;;;;;;;10.62;100.00;154087.25;4952350;28;20548;-89
2023/09/24 02:17:52;;;;;;;2.80;2.03;;;;;;;10.68;100.00;154101.50;4968704;28;20442;-89
2023/09/24 02:20:25;;;;;;;2.70;2.00;;;;;;;10.80;100.00;154132.59;4970430;28;21003;-89
2023/09/24 02:22:53;;;;;;;2.53;1.80;;;;;;;10.84;100.00;154142.94;4968763;28;20867;-89
2023/09/24 02:25:20;;;;;;;2.93;2.17;;;;;;;10.88;100.00;154154.56;4968468;28;20456;-89
2023/09/24 02:27:46;;;;;;;2.40;2.20;;;;;;;10.80;100.00;154133.84;4967886;28;20493;-89
2023/09/24 02:30:13;;;;;;;2.00;1.67;;;;;;;10.78;100.00;154128.69;4970252;28;20466;-89
2023/09/24 02:32:42;;;;;;;2.23;1.90;;;;;;;10.79;100.00;154131.28;4953131;28;20545;-89
2023/09/24 02:35:10;;;;;;;6.00;2.30;;;;;;;10.81;100.00;154136.47;4968221;28;20460;-89
2023/09/24 02:37:37;;;;;;;2.90;2.10;;;;;;;10.78;100.00;154127.38;4958926;28;21063;-89
2023/09/24 02:40:08;;;;;;;2.20;1.77;;;;;;;10.82;100.00;154137.78;4968586;28;20483;-89
2023/09/24 02:42:35;;;;;;;1.77;1.50;;;;;;;10.73;100.00;154115.75;4968580;28;20443;-89
2023/09/24 02:45:02;;;;;;;1.70;1.60;;;;;;;10.61;100.00;154084.69;4952387;28;20461;-90
2023/09/24 02:47:28;;;;;;;3.33;1.83;;;;;;;10.45;100.00;154043.25;4966097;28;20463;-90
2023/09/24 02:49:56;;;;;;;2.10;1.90;;;;;;;10.35;100.00;154017.38;4952097;28;20811;-89
2023/09/24 02:52:23;;;;;;;3.00;2.07;;;;;;;10.30;100.00;154004.38;4968635;28;20528;-90
2023/09/24 02:54:50;;;;;;;2.03;1.77;;;;;;;10.21;100.00;153981.09;4968248;28;20483;-89
2023/09/24 02:57:16;;;;;;;2.60;1.90;;;;;;;10.18;100.00;153973.34;4949060;29;20459;-90
2023/09/24 02:59:43;;;;;;;2.60;2.07;;;;;;;10.18;100.00;153973.34;4965010;28;20485;-90
2023/09/24 03:02:10;;;;;;;2.80;1.60;;;;;;;10.10;100.00;153952.56;4979349;28;20514;-89
2023/09/24 03:04:37;;;;;;;2.20;1.80;;;;;;;10.05;100.00;153940.94;4968316;28;21252;-89
2023/09/24 03:07:10;;;;;;;2.80;2.07;;;;;;;10.01;100.00;153929.25;4967116;28;20480;-89
2023/09/24 03:09:37;;;;;;;3.13;2.27;;;;;;;9.99;100.00;153925.38;4976478;28;20458;-89
2023/09/24 03:12:04;;;;;;;3.33;2.30;;;;;;;10.00;100.00;153926.69;4971781;28;20454;-90
2023/09/24 03:14:31;;;;;;;3.03;2.50;;;;;;;9.99;100.00;153925.38;4972009;28;20780;-89
2023/09/24 03:16:58;;;;;;;3.50;2.60;;;;;;;9.98;100.00;153921.53;4969854;28;20450;-90
2023/09/24 03:19:24;;;;;;;3.00;2.70;;;;;;;10.03;100.00;153934.47;4951640;28;20474;-90
2023/09/24 03:21:51;;;;;;;4.00;3.20;;;;;;;10.03;100.00;153935.78;4971675;28;20808;-89
2023/09/24 03:24:19;;;;;;;3.60;3.20;;;;;;;10.05;100.00;153939.63;4971817;28;20813;-89
2023/09/24 03:26:47;;;;;;;3.87;3.53;;;;;;;9.97;100.00;153920.22;4971949;28;20438;-89
2023/09/24 03:29:15;;;;;;;3.43;3.13;;;;;;;9.88;100.00;153895.59;4943576;28;20922;-89
2023/09/24 03:31:42;;;;;;;3.63;2.87;;;;;;;9.86;100.00;153890.44;4937399;28;20433;-90
2023/09/24 03:34:09;;;;;;;3.23;2.93;;;;;;;9.83;100.00;153883.97;4969227;28;20472;-90
2023/09/24 03:36:37;;;;;;;3.23;2.90;;;;;;;9.76;100.00;153867.19;4954208;28;20884;-90
2023/09/24 03:39:04;;;;;;;5.03;3.37;;;;;;;9.77;100.00;153869.75;4967632;28;20530;-90
2023/09/24 03:41:33;;;;;;;3.67;3.27;;;;;;;9.72;100.00;153856.81;4934842;29;20478;-90
2023/09/24 03:44:00;;;;;;;4.30;3.90;;;;;;;9.67;100.00;153843.88;4974452;28;20455;-90
2023/09/24 03:46:27;;;;;;;4.17;3.70;;;;;;;9.63;100.00;153832.25;4975872;28;20585;-90
2023/09/24 03:48:54;;;;;;;5.97;3.90;;;;;;;9.64;100.00;153834.81;4970770;28;20538;-90
2023/09/24 03:51:21;;;;;;;4.50;3.97;;;;;;;9.67;100.00;153842.56;4965843;28;20556;-89
2023/09/24 03:53:47;;;;;;;4.50;3.63;;;;;;;9.65;100.00;153837.41;4954590;28;20482;-89
2023/09/24 03:56:14;;;;;;;3.80;3.50;;;;;;;9.68;100.00;153845.16;4979691;28;20513;-90
2023/09/24 03:58:42;;;;;;;3.80;3.47;;;;;;;9.65;100.00;153838.72;4991908;28;20555;-90
2023/09/24 04:01:09;;;;;;;3.53;3.23;;;;;;;9.64;100.00;153836.09;4964124;28;21057;-89
2023/09/24 04:03:36;;;;;;;3.70;3.30;;;;;;;9.62;100.00;153830.94;4954063;28;20487;-89
2023/09/24 04:06:09;;;;;;;4.20;3.80;;;;;;;9.60;100.00;153824.47;4951108;28;20459;-90
2023/09/24 04:08:35;;;;;;;3.63;3.20;;;;;;;9.59;100.00;153823.16;4954963;28;20442;-89
2023/09/24 04:11:02;;;;;;;4.90;3.20;;;;;;;9.56;100.00;153815.41;4943078;28;20442;-91
2023/09/24 04:13:28;;;;;;;3.40;3.10;;;;;;;9.54;100.00;153810.25;4969976;28;20456;-89
2023/09/24 04:15:56;;;;;;;4.03;3.63;;;;;;;9.53;100.00;153807.63;4943838;28;20466;-91
2023/09/24 04:18:23;;;;;;;3.57;3.27;;;;;;;9.50;100.00;153798.59;4948546;28;20462;-91
2023/09/24 04:20:51;;;;;;;4.13;3.47;;;;;;;9.47;100.00;153790.84;4953521;28;20463;-90
2023/09/24 04:23:18;;;;;;;4.27;3.27;;;;;;;9.41;100.00;153775.31;4940570;28;20837;-90
2023/09/24 04:25:44;;;;;;;3.90;3.47;;;;;;;9.38;100.00;153768.84;4953389;28;20492;-91
2023/09/24 04:28:13;;;;;;;6.43;3.33;;;;;;;9.34;100.00;153758.50;4970772;28;20446;-90
2023/09/24 04:30:40;;;;;;;3.40;3.10;;;;;;;9.33;100.00;153755.91;4981322;28;20532;-90
2023/09/24 04:33:08;;;;;;;4.40;3.83;;;;;;;9.33;100.00;153755.91;4973129;28;20510;-91
2023/09/24 04:35:35;;;;;;;7.33;3.27;;;;;;;9.30;100.00;153748.13;4962588;28;20480;-90
2023/09/24 04:38:01;;;;;;;3.70;3.23;;;;;;;9.29;100.00;153745.59;4942398;28;20543;-90
2023/09/24 04:40:34;;;;;;;3.50;3.20;;;;;;;9.33;100.00;153755.91;4968055;28;20460;-91
2023/09/24 04:43:00;;;;;;;3.80;3.40;;;;;;;9.47;100.00;153792.13;4967011;28;20441;-90
2023/09/24 04:45:27;;;;;;;3.70;3.40;;;;;;;9.47;100.00;153792.13;4953162;28;20517;-90
2023/09/24 04:47:53;;;;;;;3.77;2.93;;;;;;;9.42;100.00;153779.22;4928131;29;20443;-90
2023/09/24 04:50:23;;;;;;;3.80;3.40;;;;;;;9.44;100.00;153783.06;4939075;28;20470;-90
2023/09/24 04:52:51;;;;;;;5.60;3.57;;;;;;;9.34;100.00;153757.22;4962485;28;20450;-89
2023/09/24 04:55:18;;;;;;;4.30;3.33;;;;;;;9.29;100.00;153745.59;4948717;28;20836;-88
2023/09/24 04:57:45;;;;;;;4.30;3.40;;;;;;;9.30;100.00;153746.84;4963568;28;20462;-89
2023/09/24 05:00:13;;;;;;;3.80;3.50;;;;;;;9.22;100.00;153727.44;4961809;28;20544;-89
2023/09/24 05:02:40;;;;;;;3.67;3.30;;;;;;;9.19;100.00;153720.97;4959803;28;20821;-90
2023/09/24 05:05:07;;;;;;;3.53;3.07;;;;;;;9.14;100.00;153706.75;4961259;28;20793;-89
2023/09/24 05:07:35;;;;;;;4.33;3.80;;;;;;;9.10;100.00;153696.41;4976594;28;20454;-90
2023/09/24 05:10:03;;;;;;;3.73;3.10;;;;;;;9.04;100.00;153680.88;4972428;28;20470;-89
2023/09/24 05:12:29;;;;;;;3.70;3.40;;;;;;;9.06;100.00;153687.34;4957287;28;20450;-90
2023/09/24 05:14:56;;;;;;;4.10;3.70;;;;;;;9.09;100.00;153695.13;4963828;28;20475;-89
2023/09/24 05:17:22;;;;;;;4.50;3.67;;;;;;;9.03;100.00;153679.59;4971411;28;20447;-89
2023/09/24 05:19:49;;;;;;;3.90;3.60;;;;;;;9.02;100.00;153675.72;4967979;28;20810;-89
2023/09/24 05:22:16;;;;;;;4.20;3.83;;;;;;;9.01;100.00;153673.13;4972458;28;20462;-89
2023/09/24 05:24:44;;;;;;;4.10;3.70;;;;;;;8.98;100.00;153666.66;4974035;28;20462;-89
2023/09/24 05:27:11;;;;;;;4.10;3.70;;;;;;;8.99;100.00;153669.25;4957027;28;20451;-89
2023/09/24 05:29:37;;;;;;;4.27;3.70;;;;;;;8.96;100.00;153661.50;4943666;28;20971;-89
2023/09/24 05:32:04;;;;;;;3.70;3.40;;;;;;;9.00;100.00;153671.81;4966231;28;20481;-89
2023/09/24 05:34:31;;;;;;;3.97;3.57;;;;;;;9.03;100.00;153678.28;4956610;28;20581;-89
2023/09/24 05:36:57;;;;;;;4.13;3.30;;;;;;;9.06;100.00;153686.06;4965274;28;20450;-89
2023/09/24 05:39:24;;;;;;;5.07;3.87;;;;;;;9.06;100.00;153686.06;4966570;28;20470;-89
2023/09/24 05:41:52;;;;;;;3.53;3.23;;;;;;;9.05;100.00;153683.50;4971588;28;20795;-89
2023/09/24 05:44:20;;;;;;;5.90;3.80;;;;;;;9.03;100.00;153679.59;4966409;28;20464;-88
2023/09/24 05:46:47;;;;;;;3.87;3.23;;;;;;;9.07;100.00;153688.66;4975580;28;20535;-89
2023/09/24 05:49:14;;;;;;;3.20;2.90;;;;;;;9.09;100.00;153695.13;4964165;28;20913;-89
2023/09/24 05:51:40;;;;;;;3.53;3.23;;;;;;;9.14;100.00;153706.75;4965918;28;20516;-88
2023/09/24 05:54:10;;;;;;;3.97;3.20;;;;;;;9.15;100.00;153710.66;4969240;28;20482;-88
2023/09/24 05:56:37;;;;;;;3.70;3.20;;;;;;;9.26;100.00;153736.50;4967221;28;20450;-88
2023/09/24 05:59:05;;;;;;;4.20;3.80;;;;;;;9.42;100.00;153779.22;4968857;28;20450;-87
2023/09/24 06:01:32;;;;;;;4.27;3.60;;;;;;;9.55;100.00;153812.84;4957550;28;20519;-88
2023/09/24 06:03:58;;;;;;;4.40;4.00;;;;;;;9.55;100.00;153811.53;4942096;28;20466;-88
2023/09/24 06:06:25;;;;;;;3.93;3.33;;;;;;;9.61;100.00;153828.34;4966764;28;20816;-87
2023/09/24 06:08:53;;;;;;;8.73;4.20;;;;;;;9.70;100.00;153851.63;4971919;28;20463;-88
2023/09/24 06:11:20;;;;;;;3.43;3.00;;;;;;;9.79;100.00;153873.66;4975383;28;20560;-88
2023/09/24 06:13:46;;;;;;;4.70;3.30;;;;;;;9.94;100.00;153912.47;4983543;28;20481;-88
2023/09/24 06:16:14;;;;;;;3.40;2.93;;;;;;;10.17;100.00;153970.72;4961270;28;20485;-88
2023/09/24 06:18:41;;;;;;;5.20;3.37;;;;;;;10.49;100.00;154053.59;4975941;28;20462;-88
2023/09/24 06:21:09;;;;;;;5.27;3.83;;;;;;;10.82;100.00;154139.06;4959925;28;20471;-87
2023/09/24 06:23:37;;;;;;;4.27;3.53;;;;;;;11.19;100.00;154232.31;4975718;28;20538;-87
2023/09/24 06:26:04;;;;;;;4.00;3.60;;;;;;;11.52;100.00;154317.81;4971322;28;20488;-88
2023/09/24 06:28:31;;;;;;;4.37;3.27;;;;;;;11.80;100.00;154389.16;4976961;28;20532;-88
2023/09/24 06:31:00;;;;;;;4.33;3.93;;;;;;;12.09;100.00;154465.63;4972201;28;20454;-87
2023/09/24 06:33:29;;;;;;;4.10;3.53;;;;;;;12.43;100.00;154551.19;4957736;28;20837;-87
2023/09/24 06:35:55;;;;;;;3.80;3.50;;;;;;;12.65;100.00;154608.25;4973202;28;20487;-88
2023/09/24 06:38:22;;;;;;;2.73;2.50;;;;;;;12.84;100.00;154657.50;4974085;28;21065;-88
2023/09/24 06:40:56;;;;;;;3.20;2.90;;;;;;;13.10;100.00;154725.06;4959725;28;20458;-88
2023/09/24 06:43:24;;;;;;;3.10;2.80;;;;;;;13.36;100.00;154791.22;4976073;28;20509;-88
2023/09/24 06:45:51;;;;;;;3.77;3.10;;;;;;;13.58;100.00;154847.03;4975404;28;20458;-88
2023/09/24 06:48:18;;;;;;;3.60;3.30;;;;;;;13.80;100.00;154904.09;4978991;28;20454;-87
2023/09/24 06:50:46;;;;;;;3.80;3.40;;;;;;;13.91;98.10;154933.97;4959274;28;20460;-87
2023/09/24 06:53:12;;;;;;;3.90;3.50;;;;;;;14.09;96.90;154979.41;4970522;28;20460;-88
2023/09/24 06:55:39;;;;;;;3.43;3.13;;;;;;;14.31;96.98;155035.25;4990077;28;20489;-86
2023/09/24 06:58:06;;;;;;;6.37;3.43;;;;;;;14.49;95.24;155083.34;4979155;28;20938;-89
2023/09/24 07:00:33;;;;;;;5.70;3.87;;;;;;;14.76;94.29;155150.88;4957060;28;21449;-86
2023/09/24 07:02:59;;;;;;;6.30;4.50;;;;;;;14.93;92.14;155195.06;4969220;28;20482;-86
2023/09/24 07:05:27;;;;;;;8.47;4.30;;;;;;;15.20;92.14;155265.19;4952137;28;20557;-85
2023/09/24 07:07:54;;;;;;;5.27;3.60;;;;;;;15.38;90.60;155310.72;4942701;28;20595;-86
2023/09/24 07:10:22;;;;;;;4.20;3.53;;;;;;;15.60;90.59;155369.22;4963464;28;20865;-87
2023/09/24 07:12:48;;;;;;;4.80;3.20;;;;;;;15.80;88.93;155419.94;4929252;28;20452;-86
2023/09/24 07:15:16;;;;;;;3.30;3.00;;;;;;;15.94;88.00;155456.31;4954176;28;20514;-87
2023/09/24 07:17:43;;;;;;;5.17;3.07;;;;;;;16.02;86.74;155475.88;4958736;28;20551;-87
2023/09/24 07:20:10;;;;;;;4.57;2.90;;;;;;;16.15;87.03;155509.66;4955056;28;20898;-87
2023/09/24 07:22:37;;;;;;;3.23;2.93;;;;;;;16.25;84.86;155536.97;4940907;28;20601;-87
2023/09/24 07:25:05;;;;;;;5.10;4.03;;;;;;;16.40;85.42;155575.97;4948121;28;21020;-87
2023/09/24 07:27:32;;;;;;;5.17;4.30;;;;;;;16.53;83.90;155608.53;4959299;28;20701;-87
2023/09/24 07:29:59;;;;;;;4.70;4.30;;;;;;;16.73;83.19;155660.53;4977753;28;21032;-87
2023/09/24 07:32:28;;;;;;;4.83;4.33;;;;;;;16.87;82.61;155697.00;4977705;28;20452;-87
2023/09/24 07:34:54;;;;;;;5.07;4.20;;;;;;;17.03;82.17;155738.63;4949675;28;20561;-87
2023/09/24 07:37:21;;;;;;;5.13;4.00;;;;;;;17.18;80.22;155775.09;4968540;28;20458;-86
2023/09/24 07:39:49;;;;;;;4.03;3.60;;;;;;;17.33;80.14;155814.13;4975945;28;20527;-87
2023/09/24 07:42:17;;;;;;;4.83;3.73;;;;;;;17.46;80.66;155847.94;4954578;28;20461;-87
2023/09/24 07:44:44;;;;;;;3.73;3.37;;;;;;;17.56;80.47;155875.34;4965200;28;20455;-87
2023/09/24 07:47:10;;;;;;;3.50;3.20;;;;;;;17.64;79.73;155896.16;4944519;28;20454;-86
2023/09/24 07:49:37;;;;;;;4.00;3.60;;;;;;;17.68;79.21;155905.28;4929175;28;22454;-87
2023/09/24 07:52:04;;;;;;;3.53;3.23;;;;;;;17.74;78.69;155920.88;4976075;28;20478;-85
2023/09/24 07:54:30;;;;;;;3.30;2.90;;;;;;;17.88;79.21;155957.34;4951632;28;20909;-86
2023/09/24 07:56:57;;;;;;;4.33;2.80;;;;;;;17.95;76.13;155974.31;4950696;28;20451;-86
2023/09/24 07:59:25;;;;;;;3.70;3.10;;;;;;;18.06;76.99;156004.22;4942807;28;20462;-86
2023/09/24 08:01:52;;;;;;;4.30;3.67;;;;;;;18.03;78.31;155995.16;4948982;28;20481;-86
2023/09/24 08:04:18;;;;;;;4.50;3.53;;;;;;;17.92;78.88;155967.78;4970249;28;20463;-86
2023/09/24 08:06:46;;;;;;;3.90;3.00;;;;;;;17.89;78.73;155959.97;4977791;28;20450;-85
2023/09/24 08:09:12;;;;;;;3.70;3.10;;;;;;;17.86;78.03;155952.16;4959323;28;20459;-86
2023/09/24 08:11:39;;;;;;;4.67;3.60;;;;;;;17.84;79.98;155946.97;4974423;28;20453;-85
2023/09/24 08:14:06;;;;;;;3.93;3.10;;;;;;;17.54;79.82;155868.84;4978583;28;21377;-85
2023/09/24 08:16:34;;;;;;;3.40;2.60;;;;;;;17.44;80.47;155842.75;4978230;28;20568;-85
2023/09/24 08:19:00;;;;;;;4.63;3.20;;;;;;;17.47;80.62;155851.84;4976163;28;20450;-85
2023/09/24 08:21:27;;;;;;;5.73;2.87;;;;;;;17.40;81.13;155832.31;4977082;28;20461;-86
2023/09/24 08:23:54;;;;;;;2.90;2.50;;;;;;;17.39;76.76;155831.06;4976786;28;20946;-87
2023/09/24 08:26:20;;;;;;;5.50;2.43;;;;;;;17.29;74.89;155803.72;4977215;28;20454;-85
2023/09/24 08:28:47;;;;;;;3.43;2.80;;;;;;;17.30;74.06;155807.63;4977462;28;20445;-85
2023/09/24 08:31:13;;;;;;;3.20;2.47;;;;;;;17.38;72.46;155828.44;4978777;28;20454;-86
2023/09/24 08:33:41;;;;;;;2.80;2.07;;;;;;;17.37;72.40;155824.50;4975295;28;20531;-86
2023/09/24 08:36:09;;;;;;;2.83;2.43;;;;;;;17.36;73.39;155823.25;4977245;28;20482;-86
2023/09/24 08:38:36;;;;;;;3.13;2.40;;;;;;;17.37;72.28;155824.50;4972441;28;20454;-86
2023/09/24 08:41:02;;;;;;;2.83;2.23;;;;;;;17.17;70.72;155772.47;4978292;28;20973;-86
2023/09/24 08:43:30;;;;;;;2.97;2.20;;;;;;;17.00;71.63;155730.81;4978123;28;20469;-87
2023/09/24 08:45:57;;;;;;;2.50;2.13;;;;;;;16.84;74.30;155689.19;4977778;28;20828;-87
2023/09/24 08:48:25;;;;;;;3.40;2.20;;;;;;;16.83;73.46;155686.59;4949138;28;20869;-86
2023/09/24 08:50:53;;;;;;;3.13;2.57;;;;;;;16.67;75.91;155643.66;4976148;28;20463;-87
2023/09/24 08:53:21;;;;;;;3.80;2.90;;;;;;;16.73;74.98;155660.53;4957633;28;20469;-87
2023/09/24 08:55:47;;;;;;;3.33;2.23;;;;;;;16.80;74.17;155677.47;4959575;28;20474;-87
2023/09/24 08:58:14;;;;;;;3.63;2.70;;;;;;;16.72;74.73;155657.97;4958246;28;21046;-88
2023/09/24 09:00:42;;;;;;;3.23;2.50;;;;;;;16.56;75.63;155616.34;4966449;28;20458;-85
2023/09/24 09:03:08;;;;;;;3.30;2.90;;;;;;;16.51;76.17;155603.28;4946968;28;20465;-88
2023/09/24 09:05:37;;;;;;;2.10;1.90;;;;;;;16.54;77.39;155611.16;4975934;28;20968;-87
2023/09/24 09:08:06;;;;;;;2.67;2.20;;;;;;;16.50;74.96;155599.38;4968071;28;20461;-88
2023/09/24 09:10:34;;;;;;;2.83;1.70;;;;;;;16.51;73.32;155601.97;4956493;28;20455;-88
2023/09/24 09:13:08;;;;;;;3.17;2.40;;;;;;;16.51;72.63;155603.28;4972474;28;20453;-88
2023/09/24 09:15:35;;;;;;;2.40;2.10;;;;;;;16.39;73.18;155573.34;4963960;28;21027;-88
2023/09/24 09:18:03;;;;;;;2.97;2.00;;;;;;;16.45;74.87;155587.66;4953074;28;20561;-88
2023/09/24 09:20:40;;;;;;;3.13;1.90;;;;;;;16.53;73.82;155608.53;4950939;28;20539;-88
2023/09/24 09:23:12;;;;;;;3.70;1.97;;;;;;;16.41;72.66;155577.28;4943982;28;20460;-88
2023/09/24 09:25:47;;;;;;;2.10;1.53;;;;;;;16.39;73.58;155572.06;4973620;28;20457;-88
2023/09/24 09:28:19;;;;;;;2.27;1.60;;;;;;;16.33;73.13;155556.47;4926188;28;20564;-88
2023/09/24 09:30:58;;;;;;;4.40;2.73;;;;;;;16.37;75.40;155566.84;4938853;28;20585;-88
2023/09/24 09:33:26;;;;;;;3.30;1.90;;;;;;;16.35;73.29;155561.66;4944441;28;20454;-88
2023/09/24 09:35:52;;;;;;;2.50;2.03;;;;;;;16.31;73.87;155551.25;4937653;28;20581;-88
2023/09/24 09:38:21;;;;;;;3.37;2.20;;;;;;;16.30;74.00;155549.97;4959935;28;20540;-88
2023/09/24 09:40:49;;;;;;;2.80;2.00;;;;;;;16.27;75.63;155542.16;4972200;28;20457;-88
2023/09/24 09:43:17;;;;;;;2.50;1.87;;;;;;;16.38;73.56;155569.47;4949496;28;20465;-88
2023/09/24 09:45:45;;;;;;;3.03;2.30;;;;;;;16.41;73.93;155578.56;4947164;28;20519;-88
2023/09/24 09:48:13;;;;;;;3.13;2.10;;;;;;;16.42;75.47;155581.16;4939181;28;20781;-88
2023/09/24 09:50:43;;;;;;;3.00;2.20;;;;;;;16.28;74.70;155544.75;4938452;28;20454;-88
2023/09/24 09:53:11;;;;;;;2.83;2.07;;;;;;;16.20;76.50;155522.66;4940852;28;20565;-88
2023/09/24 09:55:40;;;;;;;3.00;2.37;;;;;;;16.29;75.11;155546.06;4963258;28;20480;-87
2023/09/24 09:58:08;;;;;;;2.97;2.10;;;;;;;16.20;74.96;155523.94;4973753;28;20440;-88
2023/09/24 10:00:34;;;;;;;4.20;2.23;;;;;;;16.13;74.37;155504.44;4953103;28;20458;-87
2023/09/24 10:03:01;;;;;;;2.10;1.90;;;;;;;16.07;72.62;155488.88;4949710;28;20478;-87
2023/09/24 10:05:29;;;;;;;3.90;2.17;;;;;;;15.98;73.00;155465.44;4954620;28;20822;-88
2023/09/24 10:07:55;;;;;;;3.03;1.90;;;;;;;15.94;73.40;155456.31;4969675;28;20453;-89
2023/09/24 10:10:43;;;;;;;2.57;1.87;;;;;;;15.98;72.95;155465.44;4971291;28;20825;-89
2023/09/24 10:13:43;;;;;;;3.00;2.17;;;;;;;16.02;72.96;155475.88;4976126;28;20621;-89
2023/09/24 10:16:37;;;;;;;3.70;2.20;;;;;;;15.93;73.57;155453.75;4974033;28;20493;-89
2023/09/24 10:19:05;;;;;;;2.50;1.47;;;;;;;15.97;70.87;155464.13;4970248;28;20508;-88
2023/09/24 10:21:33;;;;;;;2.60;1.67;;;;;;;15.98;70.24;155466.75;4960671;28;20448;-89
2023/09/24 10:24:00;;;;;;;2.60;1.77;;;;;;;15.95;74.05;155458.94;4978163;28;20450;-89
2023/09/24 10:26:47;;;;;;;2.20;1.70;;;;;;;15.99;71.30;155468.06;4976411;28;20442;-88
2023/09/24 10:29:14;;;;;;;2.47;1.87;;;;;;;16.04;71.38;155481.06;4949887;28;20578;-88
2023/09/24 10:32:14;;;;;;;5.97;2.00;;;;;;;16.09;71.24;155494.06;4959675;28;20449;-88
2023/09/24 10:35:10;;;;;;;2.00;1.80;;;;;;;16.20;72.32;155523.94;4976395;28;20654;-88
2023/09/24 10:37:39;;;;;;;4.47;2.40;;;;;;;16.41;72.53;155577.28;4956391;28;20604;-89
2023/09/24 10:40:09;;;;;;;2.57;1.90;;;;;;;16.43;71.41;155582.47;4989867;28;20458;-88
2023/09/24 10:42:38;;;;;;;2.90;2.17;;;;;;;16.42;70.90;155579.88;4973258;28;20501;-88
2023/09/24 10:45:27;;;;;;;7.00;1.90;;;;;;;16.48;71.16;155595.47;4959589;28;20482;-88
2023/09/24 10:47:53;;;;;;;3.30;1.90;;;;;;;16.58;70.30;155621.53;4967478;28;20455;-88
2023/09/24 10:50:22;;;;;;;2.03;1.60;;;;;;;16.65;70.28;155638.47;4978413;28;20461;-88
2023/09/24 10:52:49;;;;;;;3.23;2.20;;;;;;;16.72;69.75;155656.66;4976836;28;20544;-88
2023/09/24 10:55:16;;;;;;;2.67;2.10;;;;;;;16.84;69.75;155689.19;4972693;28;20468;-88
2023/09/24 10:57:45;;;;;;;3.17;1.90;;;;;;;16.85;70.35;155691.81;4976147;28;20485;-88
2023/09/24 11:00:17;;;;;;;5.90;2.33;;;;;;;16.99;68.57;155728.25;4979023;28;20934;-88
2023/09/24 11:02:43;;;;;;;2.57;1.80;;;;;;;16.95;68.04;155716.50;4975862;28;20837;-88
2023/09/24 11:05:11;;;;;;;4.30;1.60;;;;;;;16.92;67.88;155710.00;4956072;28;20462;-88
2023/09/24 11:07:39;;;;;;;2.37;1.77;;;;;;;16.88;69.34;155699.63;4965521;28;20457;-88
2023/09/24 11:10:07;;;;;;;2.77;2.00;;;;;;;16.93;70.33;155712.63;4986868;28;20469;-88
2023/09/24 11:12:34;;;;;;;3.23;2.00;;;;;;;16.89;68.42;155700.94;4959228;28;20467;-88
2023/09/24 11:15:02;;;;;;;3.97;2.17;;;;;;;16.79;68.85;155674.88;4968850;28;20461;-88
2023/09/24 11:17:29;;;;;;;3.00;2.00;;;;;;;16.73;68.24;155659.28;4945794;28;20641;-89
2023/09/24 11:19:56;;;;;;;3.20;1.97;;;;;;;16.63;67.88;155633.22;4959151;28;20461;-89
2023/09/24 11:22:24;;;;;;;2.00;1.40;;;;;;;16.59;66.26;155624.16;4976721;28;20450;-90
2023/09/24 11:25:05;;;;;;;2.60;1.67;;;;;;;16.56;65.32;155616.34;4971676;28;20480;-89